Data for 05/17/2006

Time Sea-Level Adjusted Pressure Absolute Pressure Temperature Relative Humidity Dew Point   
(mb) (inHg) (mb) (inHg) (C) (F) (%) (C) (F)
00:05 1022 30.18 851 25.13 17.1 62.8 38 2.7 36.9
00:10 1022 30.18 851 25.13 16.9 62.5 39 3.1 37.5
00:15 1022 30.18 851 25.13 16.9 62.3 39 3.1 37.6
00:20 1022 30.18 852 25.16 16.7 62 39 2.6 36.7
00:25 1022 30.18 852 25.16 17 62.5 36 1.9 35.4
00:30 1022 30.18 852 25.16 17.5 63.4 35 1.9 35.4
00:35 1022 30.18 852 25.16 17.5 63.5 36 2.2 36
00:40 1022 30.18 852 25.16 17.2 62.9 38 2.8 37
00:45 1022 30.18 852 25.16 16.9 62.3 38 2.6 36.6
00:50 1022 30.18 852 25.16 17.1 62.7 37 2.5 36.5
00:55 1023 30.21 852 25.16 17 62.6 38 2.9 37.2
01:00 1023 30.21 852 25.16 16.9 62.4 38 2.6 36.7
01:05 1023 30.21 852 25.16 17 62.6 38 2.7 36.8
01:10 1023 30.21 852 25.16 16.8 62.2 38 2.6 36.8
01:15 1023 30.21 852 25.16 16.6 61.9 39 2.6 36.8
01:20 1023 30.21 852 25.16 16.5 61.7 39 2.7 36.9
01:25 1023 30.21 852 25.16 16.4 61.4 39 2.4 36.3
01:30 1023 30.21 852 25.16 16.3 61.3 39 2.3 36.2
01:35 1023 30.21 852 25.16 16 60.7 40 2.5 36.5
01:40 1023 30.21 852 25.16 15.8 60.4 41 2.6 36.6
01:45 1023 30.21 852 25.16 15.4 59.7 41 2.3 36.2
01:50 1023 30.21 852 25.16 15.2 59.3 41 2 35.7
01:55 1023 30.21 852 25.16 15.5 59.8 39 1.7 35
02:00 1023 30.21 852 25.16 15.8 60.4 42 2.9 37.2
02:05 1023 30.21 852 25.16 15.6 60.1 40 2.3 36.1
02:10 1023 30.21 852 25.16 15.2 59.4 41 2.1 35.8
02:15 1023 30.21 852 25.16 15.3 59.6 39 1.7 35
02:20 1023 30.21 852 25.16 15.5 60 40 1.9 35.5
02:25 1023 30.21 852 25.16 15.1 59.2 42 2.3 36.2
02:30 1023 30.21 852 25.16 14.9 58.9 43 2.5 36.4
02:35 1023 30.21 852 25.16 14.7 58.5 44 2.6 36.7
02:40 1023 30.21 852 25.16 14.1 57.3 46 2.8 37
02:45 1023 30.21 852 25.16 14.1 57.4 44 2 35.6
02:50 1023 30.21 852 25.16 14.8 58.6 41 1.7 35
02:55 1023 30.21 852 25.16 15.3 59.5 40 2 35.6
03:00 1023 30.21 852 25.16 15.1 59.2 41 2 35.6
03:05 1023 30.21 852 25.16 15 58.9 44 3 37.4
03:10 1023 30.21 852 25.16 15.1 59.2 41 2.1 35.8
03:15 1023 30.21 852 25.16 15.2 59.3 41 2.2 35.9
03:20 1023 30.21 852 25.16 14.9 58.8 43 2.5 36.5
03:25 1023 30.21 852 25.16 14.7 58.4 43 2.3 36.1
03:30 1023 30.21 852 25.16 14.9 58.9 42 2.3 36.2
03:35 1023 30.21 852 25.16 14.8 58.6 43 2.3 36.1
03:40 1023 30.21 852 25.16 14.7 58.5 41 1.7 35.1
03:45 1023 30.21 852 25.16 14.7 58.5 42 2.1 35.7
03:50 1023 30.21 852 25.16 14.5 58.1 48 3.7 38.6
03:55 1023 30.21 852 25.16 14.4 57.9 42 1.8 35.3
04:00 1023 30.21 852 25.16 14.2 57.6 43 1.9 35.5
04:05 1023 30.21 852 25.16 14.1 57.4 43 1.9 35.4
04:10 1023 30.21 852 25.16 13.9 57.1 45 2.3 36.1
04:15 1023 30.21 852 25.16 13.7 56.7 46 2.3 36.1
04:20 1023 30.21 852 25.16 13.7 56.6 48 2.8 37.1
04:25 1023 30.21 852 25.16 13.7 56.7 47 2.6 36.7
04:30 1023 30.21 852 25.16 13.7 56.7 48 2.9 37.2
04:35 1023 30.21 852 25.16 13.5 56.3 47 2.6 36.6
04:40 1023 30.21 852 25.16 13.4 56.2 48 2.7 36.8
04:45 1023 30.21 852 25.16 13.5 56.4 46 2.3 36.2
04:50 1023 30.21 852 25.16 13.4 56.2 47 2.4 36.4
04:55 1023 30.21 852 25.16 13.4 56.2 47 2.3 36.2
05:00 1023 30.21 852 25.16 13.7 56.7 45 2.2 36
05:05 1023 30.21 852 25.16 13.6 56.5 46 2.4 36.2
05:10 1023 30.21 852 25.16 13.3 56 47 2.4 36.4
05:15 1023 30.21 852 25.16 13 55.5 48 2.3 36.1
05:20 1023 30.21 852 25.16 13.2 55.7 48 2.4 36.4
05:25 1023 30.21 852 25.16 13.1 55.7 47 2.2 35.9
05:30 1023 30.21 852 25.16 13.1 55.5 48 2.3 36.2
05:35 1023 30.21 852 25.16 12.8 55.1 48 2.1 35.9
05:40 1023 30.21 852 25.16 12.6 54.7 49 2.3 36.2
05:45 1023 30.21 852 25.16 12.8 55.1 47 1.8 35.2
05:50 1023 30.21 852 25.16 13.2 55.7 47 2.2 35.9
05:55 1023 30.21 852 25.16 13.2 55.8 47 2.1 35.8
06:00 1023 30.21 852 25.16 13.1 55.6 46 1.9 35.5
06:05 1023 30.21 852 25.16 12.9 55.1 48 2.3 36.1
06:10 1023 30.21 852 25.16 12.6 54.7 48 2.1 35.8
06:15 1023 30.21 852 25.16 12.7 54.9 48 2 35.7
06:20 1023 30.21 852 25.16 12.8 55.1 47 1.9 35.3
06:25 1023 30.21 852 25.16 13.3 55.9 47 2.2 35.9
06:30 1023 30.21 852 25.16 13.3 55.9 46 2.1 35.8
06:35 1023 30.21 852 25.16 13.1 55.5 48 2.4 36.3
06:40 1023 30.21 852 25.16 13 55.3 48 2.4 36.3
06:45 1023 30.21 852 25.16 13 55.5 48 2.2 36
06:50 1023 30.21 852 25.16 13 55.3 48 2.4 36.4
06:55 1023 30.21 852 25.16 13.1 55.6 49 2.6 36.8
07:00 1023 30.21 852 25.16 13.1 55.5 49 2.6 36.6
07:05 1023 30.21 852 25.16 13.2 55.8 48 2.5 36.4
07:10 1023 30.21 852 25.16 13.5 56.3 47 2.5 36.5
07:15 1023 30.21 852 25.16 13.7 56.7 46 2.4 36.3
07:20 1023 30.21 852 25.16 14.1 57.4 47 3 37.4
07:25 1023 30.21 852 25.16 14.3 57.7 45 2.7 36.8
07:30 1023 30.21 852 25.16 14.5 58.1 45 2.8 37.1
07:35 1023 30.21 852 25.16 14.6 58.3 45 3 37.4
07:40 1023 30.21 852 25.16 14.9 58.7 46 3.4 38.2
07:45 1023 30.21 852 25.16 15.2 59.3 49 4.6 40.3
07:50 1023 30.21 852 25.16 15.6 60.1 46 4.1 39.4
07:55 1023 30.21 852 25.16 16 60.9 43 3.7 38.7
08:00 1023 30.21 852 25.16 16.3 61.3 43 3.8 38.9
08:05 1023 30.21 852 25.16 16.6 61.8 43 4 39.2
08:10 1023 30.21 852 25.16 17 62.6 43 4.5 40.2
08:15 1023 30.21 852 25.16 17.3 63.1 43 4.7 40.4
08:20 1023 30.21 852 25.16 17.7 63.9 43 5.1 41.1
08:25 1023 30.21 852 25.16 18.2 64.7 40 4.3 39.8
08:30 1023 30.21 852 25.16 19 66.1 37 4.2 39.5
08:35 1023 30.21 852 25.16 19.4 66.9 35 3.7 38.6
08:40 1023 30.21 852 25.16 19.4 66.9 35 3.8 38.9
08:45 1023 30.21 852 25.16 19.8 67.7 34 3.7 38.6
08:50 1023 30.21 852 25.16 19.7 67.5 34 3.7 38.6
08:55 1023 30.21 852 25.16 19.8 67.6 32 2.9 37.2
09:00 1023 30.21 852 25.16 20 68 32 3.1 37.6
09:05 1023 30.21 852 25.16 20.3 68.5 33 3.7 38.7
09:10 1023 30.21 852 25.16 20.2 68.3 34 4.1 39.3
09:15 1023 30.21 852 25.16 20.6 69.1 32 3.5 38.4
09:20 1023 30.21 852 25.16 21.1 70 32 3.8 38.8
09:25 1023 30.21 852 25.16 21.2 70.2 32 3.8 38.9
09:30 1023 30.21 852 25.16 21.1 69.9 32 3.7 38.7
09:35 1023 30.21 852 25.16 21.5 70.6 32 4.1 39.4
09:40 1023 30.21 852 25.16 21.4 70.6 31 3.7 38.7
09:45 1023 30.21 852 25.16 21.8 71.2 29 3.3 37.9
09:50 1023 30.21 852 25.16 22.2 71.9 29 3.7 38.7
09:55 1023 30.21 852 25.16 22.1 71.8 30 4 39.1
10:00 1023 30.21 852 25.16 22.3 72.1 30 3.9 39.1
10:05 1023 30.21 852 25.16 22.3 72.2 30 3.9 39.1
10:10 1023 30.21 852 25.16 22.4 72.3 29 3.9 39.1
10:15 1023 30.21 852 25.16 22.7 72.9 28 3.7 38.6
10:20 1023 30.21 852 25.16 23.1 73.6 29 4.4 40
10:25 1023 30.21 852 25.16 23.7 74.6 26 3.5 38.3
10:30 1023 30.21 852 25.16 23.7 74.6 26 3.1 37.6
10:35 1023 30.21 852 25.16 23.6 74.5 26 3.2 37.7
10:40 1023 30.21 852 25.16 23.7 74.7 25 3 37.4
10:45 1023 30.21 852 25.16 23.8 74.8 26 3.1 37.6
10:50 1023 30.21 852 25.16 23.7 74.6 25 2.7 36.9
10:55 1023 30.21 852 25.16 23.9 75 25 2.6 36.7
11:00 1023 30.21 852 25.16 23.1 73.5 27 3.1 37.5
11:05 1023 30.21 852 25.16 23.9 75 24 2.4 36.3
11:10 1023 30.21 852 25.16 24.5 76 24 2.9 37.2
11:15 1023 30.21 852 25.16 24.2 75.6 24 2.8 37.1
11:20 1023 30.21 852 25.16 24.1 75.4 24 2.5 36.4
11:25 1023 30.21 852 25.16 24.4 75.9 24 2.8 37.1
11:30 1023 30.21 852 25.16 24.6 76.3 24 3 37.3
11:35 1023 30.21 852 25.16 25.2 77.4 23 3 37.5
11:40 1022 30.18 852 25.16 25 77 24 3.5 38.4
11:45 1022 30.18 852 25.16 24.3 75.7 26 3.7 38.7
11:50 1022 30.18 851 25.13 24.8 76.6 23 2.7 36.9
11:55 1022 30.18 851 25.13 26 78.8 23 3.2 37.8
12:00 1022 30.18 851 25.13 25.9 78.6 23 3.5 38.3
12:05 1022 30.18 851 25.13 26 78.7 23 3.3 37.9
12:10 1022 30.18 851 25.13 26.1 79 23 3.5 38.3
12:15 1022 30.18 851 25.13 26 78.7 24 3.9 38.9
12:20 1022 30.18 851 25.13 26.3 79.3 23 3.5 38.4
12:25 1022 30.18 851 25.13 26.9 80.4 22 3.7 38.7
12:30 1022 30.18 851 25.13 26.7 80.1 21 3.1 37.6
12:35 1022 30.18 851 25.13 26.2 79.1 23 3.9 39
12:40 1022 30.18 851 25.13 26.5 79.6 22 3.5 38.4
12:45 1022 30.18 851 25.13 26.4 79.5 22 3.1 37.6
12:50 1022 30.18 851 25.13 27.3 81.2 20 3 37.3
12:55 1022 30.18 851 25.13 27.3 81.1 20 2.7 36.9
13:00 1022 30.18 851 25.13 28.2 82.8 19 2.8 37
13:05 1021 30.15 851 25.13 28.5 83.2 21 4.3 39.7
13:10 1021 30.15 851 25.13 28.1 82.5 22 4.5 40.2
13:15 1021 30.15 851 25.13 28 82.4 20 3.1 37.5
13:20 1021 30.15 851 25.13 27.7 81.9 21 3.6 38.6
13:25 1021 30.15 850 25.1 27.7 81.9 20 3.2 37.8
13:30 1021 30.15 850 25.1 27.8 82.1 19 2.2 36
13:35 1021 30.15 850 25.1 28 82.3 17 1.2 34.2
13:40 1021 30.15 850 25.1 27.9 82.1 17 1.3 34.3
13:45 1021 30.15 850 25.1 28.1 82.6 18 1.8 35.3
13:50 1021 30.15 850 25.1 27.4 81.3 19 2.2 35.9
13:55 1021 30.15 850 25.1 27.5 81.5 18 1.6 34.9
14:00 1021 30.15 850 25.1 27.8 82.1 17 1 33.9
14:05 1021 30.15 850 25.1 28.6 83.4 15 0.1 32.1
14:10 1021 30.15 850 25.1 28.2 82.7 18 1.7 35
14:15 1021 30.15 850 25.1 28.2 82.7 18 1.9 35.3
14:20 1021 30.15 850 25.1 28.3 83 18 2.3 36.1
14:25 1021 30.15 850 25.1 28 82.5 18 2.1 35.8
14:30 1021 30.15 850 25.1 28.2 82.7 16 0.2 32.4
14:35 1021 30.15 850 25.1 28.6 83.5 15 0.2 32.4
14:40 1021 30.15 850 25.1 28.9 83.9 15 0.1 32.1
14:45 1021 30.15 850 25.1 28.6 83.5 15 -0 31.9
14:50 1020 30.12 850 25.1 28.3 83 15 -0.5 31.1
14:55 1020 30.12 850 25.1 27.7 81.8 15 -1.3 29.7
15:00 1020 30.12 850 25.1 28.4 83.1 15 -0.6 30.9
15:05 1020 30.12 850 25.1 29.2 84.6 14 -0.3 31.5
15:10 1020 30.12 850 25.1 28.8 83.8 15 -0.4 31.3
15:15 1020 30.12 849 25.07 28.2 82.8 16 0.1 32.2
15:20 1020 30.12 849 25.07 28.2 82.8 15 -0.6 30.9
15:25 1020 30.12 849 25.07 28.7 83.6 15 -0.4 31.3
15:30 1020 30.12 849 25.07 29.1 84.3 14 -0.8 30.5
15:35 1020 30.12 849 25.07 30 86 13 -0.9 30.3
15:40 1020 30.12 849 25.07 29.9 85.8 14 -0.6 30.9
15:45 1020 30.12 849 25.07 28.9 84 14 -0.8 30.5
15:50 1020 30.12 849 25.07 29.3 84.7 13 -1.2 29.8
15:55 1020 30.12 849 25.07 29.3 84.8 14 -0.8 30.6
16:00 1020 30.12 849 25.07 29.1 84.3 13 -1.4 29.5
16:05 1020 30.12 849 25.07 28.8 83.9 14 -1.3 29.6
16:10 1020 30.12 849 25.07 28.9 84 14 -1.3 29.7
16:15 1020 30.12 849 25.07 28.8 83.9 14 -0.7 30.7
16:20 1020 30.12 849 25.07 28.9 84.1 14 -0.6 30.9
16:25 1020 30.12 849 25.07 29 84.3 15 -0.2 31.6
16:30 1020 30.12 849 25.07 28.9 83.9 15 -0.4 31.3
16:35 1020 30.12 849 25.07 27.7 81.8 15 -0.9 30.4
16:40 1020 30.12 849 25.07 27.7 81.8 15 -0.6 30.8
16:45 1020 30.12 849 25.07 28.5 83.4 15 -0.4 31.3
16:50 1019 30.09 849 25.07 28.6 83.5 15 -0.3 31.5
16:55 1019 30.09 849 25.07 27.7 81.8 15 -0.8 30.5
17:00 1019 30.09 849 25.07 28.1 82.6 15 -0.8 30.5
17:05 1019 30.09 849 25.07 28.4 83.2 14 -0.9 30.4
17:10 1019 30.09 848 25.04 28.6 83.5 15 -0.3 31.5
17:15 1019 30.09 848 25.04 28.7 83.7 15 -0.4 31.3
17:20 1019 30.09 848 25.04 28.4 83.1 15 -0.4 31.3
17:25 1019 30.09 848 25.04 28.5 83.4 15 -0.1 31.8
17:30 1019 30.09 848 25.04 28.4 83.1 15 -0.2 31.7
17:35 1019 30.09 848 25.04 28.9 84 14 -1.1 30.1
17:40 1019 30.09 848 25.04 28.4 83.2 14 -1.1 30
17:45 1019 30.09 848 25.04 28.7 83.7 14 -1 30.3
17:50 1019 30.09 848 25.04 28.3 82.9 15 -0.7 30.7
17:55 1019 30.09 848 25.04 28.6 83.4 15 -0.4 31.2
18:00 1019 30.09 848 25.04 28.7 83.6 14 -0.7 30.7
18:05 1019 30.09 848 25.04 29 84.2 15 -0.3 31.4
18:10 1019 30.09 848 25.04 28.8 83.9 15 -0.3 31.4
18:15 1019 30.09 848 25.04 28.7 83.7 15 -0.4 31.2
18:20 1019 30.09 848 25.04 28 82.4 15 -0.6 30.9
18:25 1019 30.09 848 25.04 27.3 81.2 15 -0.8 30.5
18:30 1019 30.09 848 25.04 27.9 82.2 15 -0.4 31.3
18:35 1019 30.09 848 25.04 27.8 82 18 1.9 35.3
18:40 1019 30.09 848 25.04 27 80.6 20 2.7 36.9
18:45 1019 30.09 848 25.04 26.8 80.3 21 3 37.5
18:50 1019 30.09 848 25.04 26.6 79.8 22 3.5 38.3
18:55 1019 30.09 848 25.04 26.3 79.3 23 3.6 38.4
19:00 1019 30.09 848 25.04 26.1 79 22 3.2 37.8
19:05 1019 30.09 848 25.04 26.4 79.5 22 3.3 38
19:10 1019 30.09 848 25.04 26 78.8 23 3.7 38.6
19:15 1018 30.06 848 25.04 25.6 78.1 24 3.6 38.5
19:20 1018 30.06 848 25.04 25.5 77.9 23 3.3 38
19:25 1018 30.06 848 25.04 25.2 77.4 24 3.5 38.3
19:30 1018 30.06 848 25.04 25 77 25 3.8 38.8
19:35 1018 30.06 848 25.04 24.8 76.6 25 3.6 38.4
19:40 1018 30.06 848 25.04 24.5 76.2 25 3.6 38.4
19:45 1018 30.06 848 25.04 24.3 75.8 26 3.8 38.8
19:50 1018 30.06 848 25.04 24.1 75.4 26 3.7 38.6
19:55 1018 30.06 848 25.04 24 75.2 26 3.4 38.1
20:00 1018 30.06 848 25.04 23.8 74.9 26 3.6 38.4
20:05 1018 30.06 848 25.04 23.7 74.6 27 3.8 38.9
20:10 1018 30.06 848 25.04 23.4 74.1 28 3.9 39.1
20:15 1018 30.06 848 25.04 23.2 73.8 28 4.1 39.4
20:20 1018 30.06 848 25.04 23.1 73.5 28 3.9 39.1
20:25 1018 30.06 848 25.04 23 73.3 29 4 39.2
20:30 1018 30.06 848 25.04 22.9 73.1 29 4 39.3
20:35 1018 30.06 848 25.04 22.7 72.9 29 4 39.1
20:40 1018 30.06 848 25.04 22.6 72.7 29 3.9 39
20:45 1019 30.09 848 25.04 22.5 72.5 29 3.8 38.9
20:50 1018 30.06 848 25.04 22.4 72.2 29 3.7 38.7
20:55 1019 30.09 848 25.04 22.3 72.2 29 3.8 38.8
21:00 1019 30.09 848 25.04 22.2 71.9 30 3.8 38.8
21:05 1019 30.09 848 25.04 22 71.7 30 3.9 38.9
21:10 1019 30.09 848 25.04 21.9 71.3 31 3.9 39.1
21:15 1019 30.09 848 25.04 21.7 71.1 30 3.8 38.8
21:20 1019 30.09 848 25.04 21.5 70.8 31 3.9 39
21:25 1019 30.09 848 25.04 21.2 70.2 35 5.4 41.7
21:30 1019 30.09 848 25.04 20.4 68.8 40 6.6 43.9
21:35 1019 30.09 848 25.04 20.1 68.1 37 5.1 41.2
21:40 1019 30.09 848 25.04 19.7 67.5 40 6 42.9
21:45 1019 30.09 848 25.04 19.5 67.1 39 5.2 41.4
21:50 1019 30.09 848 25.04 19.1 66.3 40 5.3 41.6
21:55 1019 30.09 848 25.04 18.8 65.9 44 6.5 43.6
22:00 1019 30.09 848 25.04 18.8 65.9 40 5.2 41.3
22:05 1019 30.09 848 25.04 18.5 65.3 42 5.5 41.8
22:10 1019 30.09 848 25.04 18.4 65.2 45 6.5 43.6
22:15 1019 30.09 848 25.04 18.1 64.5 43 5.4 41.7
22:20 1019 30.09 848 25.04 17.6 63.6 44 5.3 41.5
22:25 1019 30.09 848 25.04 17.3 63.2 44 4.9 40.9
22:30 1019 30.09 848 25.04 17.4 63.3 43 4.9 40.8
22:35 1019 30.09 848 25.04 17.3 63.2 43 4.7 40.4
22:40 1019 30.09 848 25.04 17.5 63.5 42 4.6 40.2
22:45 1019 30.09 848 25.04 17.5 63.4 42 4.7 40.5
22:50 1019 30.09 848 25.04 17.3 63.2 41 4.2 39.6
22:55 1019 30.09 848 25.04 17.4 63.4 41 4.1 39.4
23:00 1019 30.09 848 25.04 17.6 63.7 41 4.2 39.6
23:05 1019 30.09 848 25.04 17.5 63.5 42 4.5 40.1
23:10 1019 30.09 848 25.04 17.4 63.3 42 4.4 39.9
23:15 1019 30.09 848 25.04 17.3 63.1 42 4.4 40
23:20 1019 30.09 848 25.04 17.4 63.2 41 4 39.2
23:25 1019 30.09 848 25.04 17.5 63.5 41 4.1 39.4
23:30 1019 30.09 848 25.04 17.4 63.3 41 4 39.3
23:35 1019 30.09 848 25.04 17.2 63 41 4 39.2
23:40 1019 30.09 848 25.04 17.2 63 41 4.1 39.4
23:45 1019 30.09 848 25.04 16.9 62.5 42 4.2 39.5
23:50 1019 30.09 848 25.04 16.9 62.3 41 3.6 38.5
23:55 1019 30.09 848 25.04 17 62.6 41 3.7 38.7
24:00 1019 30.09 848 25.04 17 62.5 40 3.5 38.4